createdAt,value
2023-07-02T00:02:34.554Z,4.27
2023-07-02T00:06:41.665Z,4.43
2023-07-02T00:10:45.744Z,4.43
2023-07-02T00:14:48.858Z,4.80
2023-07-02T00:18:53.836Z,4.93
2023-07-02T00:22:57.234Z,4.60
2023-07-02T00:27:00.175Z,4.93
2023-07-02T00:31:03.445Z,4.83
2023-07-02T00:35:08.541Z,5.30
2023-07-02T00:39:12.958Z,5.03
2023-07-02T00:43:15.996Z,5.50
2023-07-02T00:47:18.853Z,5.57
2023-07-02T00:51:24.558Z,5.77
2023-07-02T00:55:27.581Z,4.90
2023-07-02T00:59:31.825Z,5.40
2023-07-02T01:03:38.371Z,4.97
2023-07-02T01:07:42.669Z,5.80
2023-07-02T01:11:48.711Z,5.13
2023-07-02T01:15:52.686Z,5.53
2023-07-02T01:20:00.223Z,5.30
2023-07-02T01:24:03.918Z,5.40
2023-07-02T01:28:07.041Z,7.00
2023-07-02T01:32:10.449Z,6.40
2023-07-02T01:36:14.738Z,6.23
2023-07-02T01:40:17.784Z,6.87
2023-07-02T01:44:21.254Z,7.80
2023-07-02T01:48:24.130Z,7.53
2023-07-02T01:52:28.932Z,7.20
2023-07-02T01:56:31.854Z,7.80
2023-07-02T02:00:34.765Z,6.23
2023-07-02T02:04:38.229Z,7.63
2023-07-02T02:08:42.460Z,6.87
2023-07-02T02:12:47.352Z,7.40
2023-07-02T02:16:51.017Z,7.73
2023-07-02T02:20:53.940Z,7.70
2023-07-02T02:24:58.138Z,7.37
2023-07-02T02:29:01.007Z,6.37
2023-07-02T02:33:03.861Z,6.80
2023-07-02T02:37:07.082Z,6.63
2023-07-02T02:41:11.715Z,7.27
2023-07-02T02:45:19.214Z,7.67
2023-07-02T02:49:27.829Z,8.13
2023-07-02T02:53:30.720Z,8.10
2023-07-02T02:57:36.284Z,7.70
2023-07-02T03:01:44.118Z,8.50
2023-07-02T03:05:49.234Z,8.37
2023-07-02T03:09:52.111Z,8.50
2023-07-02T03:13:56.361Z,8.73
2023-07-02T03:18:00.318Z,8.33
2023-07-02T03:22:03.270Z,7.97
2023-07-02T03:26:06.292Z,8.07
2023-07-02T03:30:11.148Z,8.80
2023-07-02T03:34:14.000Z,8.57
2023-07-02T03:38:16.987Z,8.43
2023-07-02T03:42:20.274Z,8.07
2023-07-02T03:46:24.477Z,7.90
2023-07-02T03:50:28.308Z,8.27
2023-07-02T03:54:31.206Z,8.37
2023-07-02T03:58:34.833Z,8.90
2023-07-02T04:02:39.216Z,7.70
2023-07-02T04:06:42.151Z,8.40
2023-07-02T04:10:45.062Z,8.43
2023-07-02T04:14:47.958Z,8.60
2023-07-02T04:18:52.158Z,8.17
2023-07-02T04:22:55.057Z,8.73
2023-07-02T04:27:38.635Z,8.50
2023-07-02T04:31:21.067Z,8.60
2023-07-02T04:35:25.524Z,8.57
2023-07-02T04:39:28.363Z,8.80
2023-07-02T04:43:31.270Z,9.10
2023-07-02T04:47:35.178Z,8.37
2023-07-02T04:51:41.426Z,8.20
2023-07-02T04:55:45.304Z,9.27
2023-07-02T04:59:48.732Z,8.60
2023-07-02T05:03:51.633Z,8.60
2023-07-02T05:07:56.723Z,9.20
2023-07-02T05:11:59.773Z,9.37
2023-07-02T05:16:02.597Z,8.77
2023-07-02T05:20:06.592Z,9.13
2023-07-02T05:24:11.725Z,9.17
2023-07-02T05:28:14.549Z,8.90
2023-07-02T05:32:17.356Z,8.80
2023-07-02T05:36:20.228Z,9.37
2023-07-02T05:40:24.459Z,9.30
2023-07-02T05:44:27.391Z,9.70
2023-07-02T05:48:30.423Z,9.67
2023-07-02T05:52:33.275Z,9.43
2023-07-02T05:56:37.501Z,9.30
2023-07-02T06:00:42.516Z,9.27
2023-07-02T06:04:45.597Z,9.33
2023-07-02T06:08:48.543Z,8.87
2023-07-02T06:12:53.219Z,8.23
2023-07-02T06:16:58.513Z,9.47
2023-07-02T06:21:01.462Z,9.07
2023-07-02T06:25:05.968Z,8.87
2023-07-02T06:29:10.316Z,10.47
2023-07-02T06:33:13.165Z,9.17
2023-07-02T06:37:16.005Z,8.30
2023-07-02T06:41:20.821Z,8.70
2023-07-02T06:45:26.961Z,8.40
2023-07-02T06:49:29.802Z,8.50
2023-07-02T06:53:32.850Z,9.17
2023-07-02T06:57:35.752Z,8.33
2023-07-02T07:01:39.936Z,8.73
2023-07-02T07:05:43.048Z,9.97
2023-07-02T07:09:45.903Z,8.10
2023-07-02T07:13:48.684Z,8.33
2023-07-02T07:17:52.908Z,7.87
2023-07-02T07:21:55.793Z,8.90
2023-07-02T07:25:59.013Z,7.30
2023-07-02T07:30:02.128Z,8.50
2023-07-02T07:34:06.296Z,8.87
2023-07-02T07:38:09.280Z,8.57
2023-07-02T07:42:12.110Z,8.43
2023-07-02T07:46:15.047Z,7.07
2023-07-02T07:50:19.489Z,7.43
2023-07-02T07:54:22.287Z,7.80
2023-07-02T07:58:25.814Z,8.47
2023-07-02T08:02:28.707Z,7.60
2023-07-02T08:06:32.937Z,7.20
2023-07-02T08:10:35.800Z,7.30
2023-07-02T08:14:38.918Z,7.37
2023-07-02T08:18:41.918Z,6.83
2023-07-02T08:22:46.352Z,7.20
2023-07-02T08:26:50.574Z,7.53
2023-07-02T08:30:53.423Z,7.00
2023-07-02T08:34:56.900Z,6.97
2023-07-02T08:39:01.079Z,7.43
2023-07-02T08:43:04.110Z,7.57
2023-07-02T08:47:08.207Z,6.43
2023-07-02T08:51:11.062Z,8.30
2023-07-02T08:55:15.364Z,7.07
2023-07-02T08:59:18.350Z,7.47
2023-07-02T09:03:21.213Z,7.40
2023-07-02T09:07:24.216Z,7.40
2023-07-02T09:11:28.878Z,7.07
2023-07-02T09:15:38.270Z,6.90
2023-07-02T09:19:52.029Z,6.50
2023-07-02T09:23:55.286Z,7.67
2023-07-02T09:27:59.590Z,7.27
2023-07-02T09:32:10.089Z,7.23
2023-07-02T09:36:14.828Z,6.90
2023-07-02T09:40:19.196Z,6.20
2023-07-02T09:44:24.474Z,6.77
2023-07-02T09:48:30.024Z,6.70
2023-07-02T09:52:33.245Z,6.30
2023-07-02T09:56:36.241Z,5.47
2023-07-02T10:00:41.808Z,5.73
2023-07-02T10:04:46.391Z,5.57
2023-07-02T10:08:56.669Z,5.87
2023-07-02T10:13:00.224Z,6.27
2023-07-02T10:17:04.775Z,5.53
2023-07-02T10:21:17.797Z,6.10
2023-07-02T10:25:27.149Z,5.83
2023-07-02T10:29:31.274Z,5.83
2023-07-02T10:33:35.440Z,6.33
2023-07-02T10:37:38.990Z,5.77
2023-07-02T10:41:42.102Z,5.27
2023-07-02T10:45:45.409Z,5.30
2023-07-02T10:49:49.678Z,5.60
2023-07-02T10:53:59.891Z,5.67
2023-07-02T10:58:07.978Z,6.03
2023-07-02T11:02:11.274Z,5.10
2023-07-02T11:06:15.662Z,5.37
2023-07-02T11:10:22.405Z,5.70
2023-07-02T11:14:29.562Z,4.97
2023-07-02T11:18:33.241Z,4.67
2023-07-02T11:22:39.504Z,5.00
2023-07-02T11:26:44.411Z,4.93
2023-07-02T11:30:47.718Z,5.00
2023-07-02T11:34:56.029Z,4.97
2023-07-02T11:39:00.224Z,4.70
2023-07-02T11:43:03.085Z,5.00
2023-07-02T11:47:06.614Z,4.43
2023-07-02T11:51:09.481Z,4.27
2023-07-02T11:55:14.053Z,4.43
2023-07-02T11:59:16.886Z,4.63
2023-07-02T12:03:20.088Z,3.73
2023-07-02T12:07:22.885Z,4.50
2023-07-02T12:11:27.254Z,3.83
2023-07-02T12:15:30.100Z,3.87
2023-07-02T12:19:32.930Z,4.00
2023-07-02T12:23:35.742Z,4.53
2023-07-02T12:27:39.918Z,4.37
2023-07-02T12:31:42.746Z,4.07
2023-07-02T12:35:45.588Z,4.63
2023-07-02T12:39:48.460Z,4.53
2023-07-02T12:43:55.855Z,4.20
2023-07-02T12:47:58.708Z,4.13
2023-07-02T12:52:01.751Z,4.03
2023-07-02T12:56:05.001Z,4.77
2023-07-02T13:00:10.786Z,4.13
2023-07-02T13:04:15.867Z,3.47
2023-07-02T13:08:19.310Z,3.70
2023-07-02T13:12:22.149Z,4.27
2023-07-02T13:16:26.436Z,4.07
2023-07-02T13:20:29.434Z,3.77
2023-07-02T13:24:36.305Z,3.67
2023-07-02T13:28:39.158Z,4.00
2023-07-02T13:32:43.344Z,4.50
2023-07-02T13:36:46.165Z,3.63
2023-07-02T13:40:49.071Z,3.47
2023-07-02T13:44:52.010Z,4.63
2023-07-02T13:48:56.301Z,3.57
2023-07-02T13:52:59.188Z,4.13
2023-07-02T13:57:02.082Z,3.90
2023-07-02T14:01:06.917Z,3.97
2023-07-02T14:05:10.469Z,4.03
2023-07-02T14:09:13.808Z,4.57
2023-07-02T14:13:16.795Z,4.30
2023-07-02T14:17:21.412Z,4.10
2023-07-02T14:21:24.437Z,4.57
2023-07-02T14:25:40.747Z,4.53
2023-07-02T14:29:44.852Z,4.10
2023-07-02T14:33:49.233Z,4.17
2023-07-02T14:37:52.158Z,4.43
2023-07-02T14:41:55.019Z,4.47
2023-07-02T14:46:00.329Z,4.50
2023-07-02T14:50:04.775Z,3.70
2023-07-02T14:54:07.586Z,4.50
2023-07-02T14:58:11.611Z,4.33
2023-07-02T15:02:14.673Z,4.57
2023-07-02T15:06:20.387Z,4.20
2023-07-02T15:10:23.263Z,4.43
2023-07-02T15:14:26.278Z,4.17
2023-07-02T15:18:29.543Z,4.07
2023-07-02T15:22:33.748Z,4.23
2023-07-02T15:26:36.949Z,5.97
2023-07-02T15:30:40.957Z,4.27
2023-07-02T15:34:43.737Z,4.23
2023-07-02T15:38:48.032Z,4.27
2023-07-02T15:42:53.607Z,4.53
2023-07-02T15:46:57.529Z,4.63
2023-07-02T15:51:00.466Z,4.50
2023-07-02T15:55:04.750Z,4.80
2023-07-02T15:59:07.606Z,4.17
2023-07-02T16:03:10.421Z,4.23
2023-07-02T16:07:14.129Z,4.20
2023-07-02T16:11:18.271Z,4.47
2023-07-02T16:15:21.753Z,4.87
2023-07-02T16:19:25.216Z,4.53
2023-07-02T16:23:28.160Z,4.30
2023-07-02T16:27:32.372Z,4.03
2023-07-02T16:31:35.991Z,4.70
2023-07-02T16:35:38.955Z,4.73
2023-07-02T16:39:41.796Z,4.20
2023-07-02T16:43:45.931Z,4.60
2023-07-02T16:47:48.846Z,4.90
2023-07-02T16:51:52.352Z,4.10
2023-07-02T16:55:58.475Z,4.87
2023-07-02T17:00:02.771Z,4.10
2023-07-02T17:04:05.921Z,4.77
2023-07-02T17:08:08.945Z,4.83
2023-07-02T17:12:14.690Z,5.00
2023-07-02T17:16:18.979Z,5.27
2023-07-02T17:20:21.825Z,4.90
2023-07-02T17:24:26.767Z,5.10
2023-07-02T17:28:30.682Z,4.60
2023-07-02T17:32:35.773Z,4.87
2023-07-02T17:36:38.632Z,4.90
2023-07-02T17:40:42.014Z,4.27
2023-07-02T17:44:46.393Z,4.43
2023-07-02T17:48:50.575Z,4.87
2023-07-02T17:52:53.507Z,5.43
2023-07-02T17:56:56.889Z,4.97
2023-07-02T18:00:59.833Z,5.50
2023-07-02T18:05:04.295Z,4.87
2023-07-02T18:09:07.400Z,4.57
2023-07-02T18:13:10.692Z,4.50
2023-07-02T18:17:13.781Z,5.30
2023-07-02T18:21:18.159Z,5.03
2023-07-02T18:25:21.344Z,4.90
2023-07-02T18:29:24.231Z,4.23
2023-07-02T18:33:27.826Z,5.50
2023-07-02T18:37:32.017Z,5.33
2023-07-02T18:41:34.859Z,5.30
2023-07-02T18:45:37.680Z,5.07
2023-07-02T18:49:41.375Z,5.37
2023-07-02T18:53:45.580Z,5.17
2023-07-02T18:57:48.481Z,5.40
2023-07-02T19:01:51.764Z,4.87
2023-07-02T19:05:54.642Z,4.63
2023-07-02T19:09:59.917Z,4.80
2023-07-02T19:14:03.325Z,4.57
2023-07-02T19:18:08.056Z,4.67
2023-07-02T19:22:11.996Z,5.60
2023-07-02T19:26:16.151Z,5.43
2023-07-02T19:30:19.438Z,5.27
2023-07-02T19:34:22.454Z,5.10
2023-07-02T19:38:25.864Z,4.67
2023-07-02T19:42:31.573Z,4.50
2023-07-02T19:46:34.760Z,4.57
2023-07-02T19:50:37.678Z,5.17
2023-07-02T19:54:42.154Z,4.87
2023-07-02T19:58:47.026Z,5.00
2023-07-02T20:02:49.983Z,4.83
2023-07-02T20:06:53.068Z,5.27
2023-07-02T20:10:56.080Z,5.20
